Latest Coastal Weather Observations for Legendre Island

IDW60701

Issued at 4:45 pm WST Saturday 22 November 2014 (issued every 10 minutes, with the page automatically refreshed every 10 minutes)

About coastal observations | Map of coastal stations | Coastal observations for WA | Marine services | Other Formats
Station Details ID: 004095 Name: LEGENDRE ISLAND Lat: -20.36 Lon: 116.84 Height: 29.0 m
Data from the previous 72 hours. | See also: Recent months for locations in Western Australia
Date/Time
WST
Temp

°C
Wind Pressure Rain
since 9am
mm
Weather Cloud Vis
km
Sea
Height
m
Swell
Dir
 
Speed
knots
Gust
knots
hPa Trend Height
m
Period
s
Dir
22/04:30pm 27.9 W 14 17 1009.0 - - - - - - - - -
22/04:00pm 29.2 W 13 15 1009.1 - - - - - - - - -
22/03:30pm 28.8 W 14 17 1009.1 - - - - - - - - -
22/03:00pm 29.6 W 14 17 1009.4 - - - - - - - - -
22/02:30pm 29.6 W 14 17 1009.5 - - - - - - - - -
22/02:00pm 29.6 W 14 17 1009.7 - - - - - - - - -
22/01:30pm 30.1 W 14 17 1009.8 - - - - - - - - -
22/01:00pm 30.1 W 14 17 1010.0 - - - - - - - - -
22/12:30pm 30.1 W 13 16 1010.3 - - - - - - - - -
22/12:00pm 29.9 W 14 17 1010.6 - - - - - - - - -
22/11:30am 29.1 W 15 18 1010.8 - - - - - - - - -
22/11:00am 29.5 W 15 17 1010.8 - - - - - - - - -
22/10:30am 29.0 WSW 15 17 1011.0 - - - - - - - - -
22/10:00am 28.7 WSW 14 16 1010.9 - - - - - - - - -
22/09:30am 28.7 WSW 17 20 1011.0 - - - - - - - - -
22/09:00am 28.5 WSW 15 18 1010.9 - - - - - - - - -
22/08:30am 27.6 WSW 17 20 1010.7 - - - - - - - - -
22/08:00am 26.0 SW 16 18 1010.6 - - - - - - - - -
22/07:30am 26.6 SW 16 19 1010.5 - - - - - - - - -
22/07:00am 26.0 WSW 14 17 1010.5 - - - - - - - - -
22/06:30am 25.4 WSW 18 21 1009.8 - - - - - - - - -
22/06:00am 25.0 WSW 17 21 1009.5 - - - - - - - - -
22/05:30am 24.7 WSW 17 20 1009.2 - - - - - - - - -
22/05:00am 24.8 SW 17 20 1008.9 - - - - - - - - -
22/04:30am 24.9 WSW 17 20 1008.9 - - - - - - - - -
22/04:00am 25.1 WSW 17 21 1008.8 - - - - - - - - -
22/03:30am 25.1 WSW 16 19 1008.7 - - - - - - - - -
22/03:00am 25.2 WSW 16 20 1008.8 - - - - - - - - -
22/02:30am 25.1 WSW 16 19 1008.9 - - - - - - - - -
22/02:00am 25.3 WSW 17 20 1008.8 - - - - - - - - -
22/01:30am 25.3 WSW 18 22 1008.9 - - - - - - - - -
22/01:00am 25.4 WSW 18 21 1008.9 - - - - - - - - -
22/12:30am 25.4 WSW 18 23 1009.1 - - - - - - - - -
22/12:00am 25.3 WSW 17 22 1009.4 - - - - - - - - -
 
Date/Time
WST
Temp

°C
Wind Pressure Rain
since 9am
mm
Weather Cloud Vis
km
Sea
Height
m
Swell
Dir
 
Speed
knots
Gust
knots
hPa Trend Height
m
Period
s
Dir
21/11:30pm 25.5 WSW 18 21 1009.6 - - - - - - - - -
21/11:00pm 25.6 WSW 18 22 1010.0 - - - - - - - - -
21/10:30pm 25.8 WSW 16 19 1010.1 - - - - - - - - -
21/10:00pm 25.7 WSW 13 16 1010.2 - - - - - - - - -
21/09:30pm 25.8 WSW 12 15 1010.2 - - - - - - - - -
21/09:00pm 25.7 WSW 13 16 1010.1 - - - - - - - - -
21/08:30pm 25.8 W 17 20 1009.8 - - - - - - - - -
21/08:00pm 26.1 W 17 21 1009.5 - - - - - - - - -
21/07:30pm 26.2 W 17 20 1009.2 - - - - - - - - -
21/07:00pm 26.6 W 16 19 1009.1 - - - - - - - - -
21/06:30pm 26.8 W 15 18 1009.0 - - - - - - - - -
21/06:00pm 27.6 W 17 21 1008.4 - - - - - - - - -
21/05:30pm 28.3 W 17 20 1008.4 - - - - - - - - -
21/05:00pm 28.9 W 17 21 1008.3 - - - - - - - - -
21/04:30pm 29.5 W 16 18 1008.5 - - - - - - - - -
21/04:00pm 29.4 W 16 19 1008.4 - - - - - - - - -
21/03:30pm 29.9 W 15 18 1008.5 - - - - - - - - -
21/03:00pm 30.1 W 16 18 1008.8 - - - - - - - - -
21/02:30pm 30.1 W 16 18 1009.1 - - - - - - - - -
21/02:00pm 29.7 W 15 17 1009.4 - - - - - - - - -
21/01:30pm 30.4 W 15 17 1009.6 - - - - - - - - -
21/01:00pm 30.0 W 15 17 1010.0 - - - - - - - - -
21/12:30pm 29.9 W 15 17 1010.2 - - - - - - - - -
21/12:00pm 29.8 W 14 17 1010.5 - - - - - - - - -
21/11:30am 30.1 W 14 17 1010.8 - - - - - - - - -
21/11:00am 29.8 W 14 16 1011.2 - - - - - - - - -
21/10:30am 29.5 WSW 12 15 1011.4 - - - - - - - - -
21/10:00am 29.1 WSW 13 15 1011.6 - - - - - - - - -
21/09:30am 29.4 WSW 12 15 1011.6 - - - - - - - - -
21/09:00am 29.8 WSW 12 14 1011.5 - - - - - - - - -
21/08:30am 28.5 WSW 12 14 1011.4 - - - - - - - - -
21/08:00am 28.4 SW 12 15 1011.3 - - - - - - - - -
21/07:30am 27.7 SW 13 16 1011.1 - - - - - - - - -
21/07:00am 27.3 SW 13 16 1010.9 - - - - - - - - -
21/06:30am 26.6 SW 13 16 1010.5 - - - - - - - - -
21/06:00am 25.7 SW 14 18 1010.2 - - - - - - - - -
21/05:30am 25.3 SW 15 18 1009.7 - - - - - - - - -
21/05:00am 25.5 SW 16 19 1009.4 - - - - - - - - -
21/04:30am 25.8 SW 19 22 1009.1 - - - - - - - - -
21/04:00am 26.1 SW 19 23 1008.8 - - - - - - - - -
21/03:30am 26.3 SW 17 21 1008.8 - - - - - - - - -
21/03:00am 26.6 SW 18 22 1008.9 - - - - - - - - -
21/02:30am 26.9 SW 19 23 1009.1 - - - - - - - - -
21/02:00am 27.1 SW 20 23 1009.2 - - - - - - - - -
21/01:30am 26.9 SW 19 23 1009.4 - - - - - - - - -
21/01:00am 26.3 SW 17 21 1009.8 - - - - - - - - -
21/12:30am 26.2 WSW 19 23 1010.2 - - - - - - - - -
21/12:00am 26.3 WSW 21 25 1010.2 - - - - - - - - -
 
Date/Time
WST
Temp

°C
Wind Pressure Rain
since 9am
mm
Weather Cloud Vis
km
Sea
Height
m
Swell
Dir
 
Speed
knots
Gust
knots
hPa Trend Height
m
Period
s
Dir
20/11:30pm 26.5 WSW 20 25 1010.4 - - - - - - - - -
20/11:00pm 26.7 WSW 18 22 1010.7 - - - - - - - - -
20/10:30pm 26.6 WSW 15 18 1011.0 - - - - - - - - -
20/10:00pm 26.3 WSW 14 17 1011.1 - - - - - - - - -
20/09:30pm 26.3 WSW 13 15 1011.2 - - - - - - - - -
20/09:00pm 26.7 WSW 15 17 1011.1 - - - - - - - - -
20/08:30pm 26.6 W 12 14 1011.0 - - - - - - - - -
20/08:00pm 26.6 W 10 11 1010.8 - - - - - - - - -
20/07:30pm 26.7 W 9 11 1010.6 - - - - - - - - -
20/07:00pm 26.9 W 9 13 1010.2 - - - - - - - - -
20/06:30pm 27.3 W 9 12 1009.8 - - - - - - - - -
20/06:00pm 28.4 W 11 13 1009.6 - - - - - - - - -
20/05:30pm 29.1 W 12 15 1009.3 - - - - - - - - -
20/05:00pm 29.4 W 13 15 1009.1 - - - - - - - - -
20/04:30pm 30.2 W 12 14 1009.0 - - - - - - - - -
20/04:00pm 30.8 W 12 15 1009.0 - - - - - - - - -
20/03:30pm 31.6 W 11 14 1009.2 - - - - - - - - -
20/03:00pm 31.2 W 11 13 1009.4 - - - - - - - - -
20/02:30pm 31.1 W 12 14 1009.6 - - - - - - - - -
20/02:00pm 31.9 W 11 13 1009.8 - - - - - - - - -
20/01:30pm 32.6 W 10 12 1010.2 - - - - - - - - -
20/01:00pm 32.2 W 9 11 1010.5 - - - - - - - - -
20/12:30pm 32.6 W 7 10 1010.8 - - - - - - - - -
20/12:00pm 32.4 W 7 10 1011.1 - - - - - - - - -
20/11:30am 32.1 W 6 9 1011.4 - - - - - - - - -
20/11:00am 32.4 W 7 9 1011.7 - - - - - - - - -
20/10:30am 32.9 WSW 6 9 1012.0 - - - - - - - - -
20/10:00am 31.7 WSW 8 10 1012.1 - - - - - - - - -
20/09:30am 30.6 SW 8 11 1012.2 - - - - - - - - -
20/09:00am 30.3 SW 9 11 1012.4 - - - - - - - - -
20/08:30am 29.6 SW 9 10 1012.3 - - - - - - - - -
20/08:00am 29.3 SSW 10 12 1011.9 - - - - - - - - -
20/07:30am 28.4 SW 11 13 1011.7 - - - - - - - - -
20/07:00am 28.1 SSW 11 12 1011.6 - - - - - - - - -
20/06:30am 27.1 SW 11 12 1011.3 - - - - - - - - -
20/06:00am 26.1 SW 11 13 1010.9 - - - - - - - - -
20/05:30am 25.3 SW 12 14 1010.4 - - - - - - - - -
20/05:00am 25.4 SW 12 14 1010.3 - - - - - - - - -
20/04:30am 25.6 SW 13 16 1010.1 - - - - - - - - -
20/04:00am 26.0 SW 13 16 1009.9 - - - - - - - - -
20/03:30am 26.1 SW 14 16 1009.8 - - - - - - - - -
20/03:00am 26.0 SW 14 17 1009.8 - - - - - - - - -
20/02:30am 26.1 WSW 13 15 1009.8 - - - - - - - - -
20/02:00am 25.9 WSW 10 13 1010.0 - - - - - - - - -
20/01:30am 25.7 WSW 11 13 1010.3 - - - - - - - - -
20/01:00am 25.5 WSW 11 15 1010.7 - - - - - - - - -
20/12:30am 25.5 WSW 14 16 1010.9 - - - - - - - - -
20/12:00am 25.6 WSW 14 17 1011.2 - - - - - - - - -
 
Date/Time
WST
Temp

°C
Wind Pressure Rain
since 9am
mm
Weather Cloud Vis
km
Sea
Height
m
Swell
Dir
 
Speed
knots
Gust
knots
hPa Trend Height
m
Period
s
Dir
19/11:30pm 25.7 WSW 14 17 1011.4 - - - - - - - - -
19/11:00pm 25.7 WSW 17 20 1011.7 - - - - - - - - -
19/10:30pm 25.7 WSW 15 20 1011.7 - - - - - - - - -
19/10:00pm 26.0 WSW 17 19 1011.8 - - - - - - - - -
19/09:30pm 25.9 WSW 14 17 1011.7 - - - - - - - - -
19/09:00pm 25.9 WSW 14 17 1011.6 - - - - - - - - -
19/08:30pm 26.0 WSW 14 17 1011.4 - - - - - - - - -
19/08:00pm 26.0 WSW 11 15 1011.3 - - - - - - - - -
19/07:30pm 26.1 WSW 14 18 1010.9 - - - - - - - - -
19/07:00pm 26.4 WSW 14 17 1010.4 - - - - - - - - -
19/06:30pm 26.9 W 15 19 1010.0 - - - - - - - - -
19/06:00pm 27.3 W 16 20 1009.8 - - - - - - - - -
19/05:30pm 27.9 WSW 18 22 1009.7 - - - - - - - - -
19/05:00pm 28.9 W 17 20 1009.7 - - - - - - - - -

Other Formats:

Comma delimited format used in spreadsheet applications
http://www.bom.gov.au/fwo/IDW60701/IDW60701.94307.axf

JavaScript Object Notation format (JSON) in row-major order
http://www.bom.gov.au/fwo/IDW60701/IDW60701.94307.json